»·PEaware :: ASA102 KSAN-KSJC

ASA102 :: KSAN-KSJC

FLIGHT INFORMATION

Flight Status: Arrived
Operator:
Alaska Airlines
More flights by this operator :: More flights under this callsign
Pilot: Cole F. (14495)
Aircraft: BOEING 737-800
(B738)
More flights by this aircraft type
Origin: KSAN San Diego Intl-Lindbergh
United States
Destination: KSJC Mineta San Jose Intl
United States
More flights between these airports :: More routes between these airports
Route: PADRZ1 IKAYE TESEA SCTRR TROXX SILCN4
File this flight plan on PilotEdge
Remarks:
Altitude:
(Current/Filed)
34,000ft
Speed:
(Current/Filed)
450kts
Departed: 01-Dec-17 06:23 PM
Arrived: 01-Dec-17 07:29 PM
Distance/Time
Traveled:
363nm/1:06
Distance/Time
To Go:
Arrived

Flight Plot

Page will automatically refresh every two minutes.

Flight plan parsing failed; only flown route is shown


Map Options




Map Legend


Flown Route
Filed Route
Departure Airport
Arrival Airport
Navaid (VOR, NDB)
Fix

Horizontal Profiles

Position Reports

Time Latitude Longitude Heading Altitude Ground
Speed
01-Dec-17 18:09 32.733372 -117.199102 116 19ft 0kts
01-Dec-17 18:10 32.733372 -117.199102 116 19ft 0kts
01-Dec-17 18:11 32.733372 -117.199102 116 19ft 0kts
01-Dec-17 18:12 32.733372 -117.199102 116 19ft 0kts
01-Dec-17 18:13 32.733372 -117.199102 116 19ft 0kts
01-Dec-17 18:14 32.733372 -117.199102 116 19ft 0kts
01-Dec-17 18:15 32.733372 -117.199102 116 19ft 0kts
01-Dec-17 18:16 32.733372 -117.199102 116 19ft 0kts
01-Dec-17 18:17 32.733376 -117.199111 116 19ft 1kts
01-Dec-17 18:18 32.733383 -117.199717 51 19ft 2kts
01-Dec-17 18:19 32.733102 -117.199906 11 18ft 0kts
01-Dec-17 18:20 32.733102 -117.199906 11 18ft 0kts
01-Dec-17 18:21 32.733102 -117.199906 11 18ft 0kts
01-Dec-17 18:22 32.734754 -117.198918 102 20ft 10kts
01-Dec-17 18:23 32.733495 -117.193673 106 20ft 17kts
01-Dec-17 18:24 32.732235 -117.188375 106 21ft 17kts
01-Dec-17 18:25 32.730706 -117.182172 105 19ft 21kts
01-Dec-17 18:26 32.729469 -117.176961 90 21ft 10kts
01-Dec-17 18:27 32.730398 -117.176683 286 25ft 29kts
01-Dec-17 18:28 32.740043 -117.217478 293 1141ft 176kts
01-Dec-17 18:29 32.774337 -117.277792 307 2754ft 257kts
01-Dec-17 18:30 32.817755 -117.346685 308 5874ft 267kts
01-Dec-17 18:31 32.863612 -117.417780 308 8789ft 277kts
01-Dec-17 18:32 32.911568 -117.492222 307 11026ft 304kts
01-Dec-17 18:33 32.963896 -117.573706 308 13632ft 313kts
01-Dec-17 18:34 33.017148 -117.656922 308 16203ft 323kts
01-Dec-17 18:35 33.074126 -117.741080 320 18875ft 332kts
01-Dec-17 18:36 33.141703 -117.808862 320 21149ft 344kts
01-Dec-17 18:37 33.214253 -117.885726 314 23343ft 357kts
01-Dec-17 18:38 33.284728 -117.971816 315 25324ft 370kts
01-Dec-17 18:39 33.357463 -118.060210 315 27284ft 377kts
01-Dec-17 18:40 33.430818 -118.149287 315 29362ft 373kts
01-Dec-17 18:41 33.503168 -118.237066 316 31134ft 368kts
01-Dec-17 18:42 33.573921 -118.322839 316 32819ft 359kts
01-Dec-17 18:43 33.643297 -118.406865 316 34019ft 356kts
01-Dec-17 18:44 33.715316 -118.494011 316 34033ft 379kts
01-Dec-17 18:45 33.791722 -118.586407 316 34031ft 402kts
01-Dec-17 18:46 33.871500 -118.682825 316 34023ft 419kts
01-Dec-17 18:47 33.953381 -118.781682 316 34018ft 417kts
01-Dec-17 18:48 34.035339 -118.880517 316 34017ft 416kts
01-Dec-17 18:49 34.113786 -118.975030 316 34024ft 415kts
01-Dec-17 18:50 34.195084 -119.072981 315 34023ft 414kts
01-Dec-17 18:51 34.276142 -119.171656 315 34022ft 413kts
01-Dec-17 18:52 34.356910 -119.269914 315 34021ft 412kts
01-Dec-17 18:53 34.437415 -119.367760 315 34020ft 411kts
01-Dec-17 18:54 34.517953 -119.465558 315 34018ft 409kts
01-Dec-17 18:55 34.598187 -119.562893 315 34017ft 408kts
01-Dec-17 18:56 34.678271 -119.659962 315 34018ft 407kts
01-Dec-17 18:57 34.758076 -119.756658 315 34020ft 406kts
01-Dec-17 18:58 34.838049 -119.853404 315 34046ft 405kts
01-Dec-17 18:59 34.917936 -119.949958 314 34045ft 404kts
01-Dec-17 19:00 34.997557 -120.046102 314 34044ft 404kts
01-Dec-17 19:01 35.077156 -120.142126 314 34042ft 403kts
01-Dec-17 19:02 35.147165 -120.226509 314 34032ft 402kts
01-Dec-17 19:03 35.233380 -120.312776 321 34020ft 403kts
01-Dec-17 19:04 35.321945 -120.393917 315 34009ft 398kts
01-Dec-17 19:05 35.411652 -120.476362 316 34017ft 407kts
01-Dec-17 19:06 35.502116 -120.559356 316 34066ft 407kts
01-Dec-17 19:07 35.596817 -120.637087 320 34065ft 411kts
01-Dec-17 19:08 35.692350 -120.712435 319 34078ft 408kts
01-Dec-17 19:09 35.780371 -120.781747 318 33315ft 354kts
01-Dec-17 19:10 35.847121 -120.834396 318 31922ft 337kts
01-Dec-17 19:11 35.941131 -120.908511 319 29938ft 349kts
01-Dec-17 19:12 36.009294 -120.962223 317 28493ft 351kts
01-Dec-17 19:13 36.099002 -121.047876 315 26471ft 352kts
01-Dec-17 19:14 36.157709 -121.103914 315 25144ft 353kts
01-Dec-17 19:15 36.234027 -121.176706 315 23446ft 342kts
01-Dec-17 19:16 36.309017 -121.248224 315 21757ft 339kts
01-Dec-17 19:17 36.382668 -121.318691 316 20096ft 334kts
01-Dec-17 19:18 36.455497 -121.388987 316 18448ft 329kts
01-Dec-17 19:19 36.533660 -121.446056 336 16816ft 336kts
01-Dec-17 19:20 36.620659 -121.482243 336 15054ft 326kts
01-Dec-17 19:21 36.705546 -121.518105 337 13451ft 320kts
01-Dec-17 19:22 36.788959 -121.553469 337 11878ft 314kts
01-Dec-17 19:23 36.869437 -121.587692 338 10325ft 293kts
01-Dec-17 19:24 36.942029 -121.618569 338 8981ft 267kts
01-Dec-17 19:25 37.011471 -121.648078 341 7683ft 263kts
01-Dec-17 19:26 37.079410 -121.676951 341 6420ft 257kts
01-Dec-17 19:27 37.137290 -121.701593 341 5349ft 253kts
01-Dec-17 19:28 37.194653 -121.746767 320 4245ft 232kts
01-Dec-17 19:29 37.238308 -121.793914 318 3161ft 182kts
01-Dec-17 19:30 37.272265 -121.830935 318 2262ft 151kts
01-Dec-17 19:31 37.304227 -121.866000 318 1466ft 157kts
01-Dec-17 19:32 37.336066 -121.900686 317 601ft 147kts
01-Dec-17 19:33 37.364427 -121.931849 318 50ft 64kts
01-Dec-17 19:34 37.368393 -121.932581 48 50ft 11kts
01-Dec-17 19:35 37.368145 -121.930042 139 50ft 9kts
01-Dec-17 19:36 37.368188 -121.929130 48 50ft 0kts
01-Dec-17 19:37 37.368182 -121.929139 48 50ft 0kts

Navigation Log

Ident Type
Flight plan parsing failed, navigation log unavailable